createdAt,value
2023-01-15T00:00:18.648Z,17.73
2023-01-15T00:02:49.654Z,15.80
2023-01-15T00:05:20.007Z,16.07
2023-01-15T00:07:50.557Z,15.27
2023-01-15T00:10:20.977Z,15.13
2023-01-15T00:12:54.051Z,16.23
2023-01-15T00:15:24.465Z,14.70
2023-01-15T00:17:54.789Z,16.93
2023-01-15T00:20:25.126Z,19.00
2023-01-15T00:22:56.051Z,18.67
2023-01-15T00:25:42.655Z,17.13
2023-01-15T00:28:16.168Z,16.20
2023-01-15T00:30:49.141Z,15.60
2023-01-15T00:33:19.565Z,14.90
2023-01-15T00:35:51.847Z,15.80
2023-01-15T00:38:21.954Z,15.50
2023-01-15T00:40:53.629Z,15.73
2023-01-15T00:43:25.578Z,15.53
2023-01-15T00:45:56.014Z,20.40
2023-01-15T00:48:26.397Z,23.80
2023-01-15T00:50:56.556Z,22.37
2023-01-15T00:53:26.864Z,24.90
2023-01-15T00:55:57.190Z,17.03
2023-01-15T00:58:29.465Z,18.53
2023-01-15T01:01:01.448Z,17.30
2023-01-15T01:03:31.957Z,16.10
2023-01-15T01:06:05.246Z,16.77
2023-01-15T01:08:35.785Z,17.17
2023-01-15T01:11:08.460Z,16.97
2023-01-15T01:13:41.335Z,14.97
2023-01-15T01:16:25.816Z,14.83
2023-01-15T01:18:56.737Z,14.50
2023-01-15T01:21:27.267Z,13.67
2023-01-15T01:23:57.696Z,14.17
2023-01-15T01:26:28.115Z,14.60
2023-01-15T01:29:00.516Z,15.60
2023-01-15T01:31:31.087Z,15.93
2023-01-15T01:34:02.686Z,15.63
2023-01-15T01:36:41.797Z,15.23
2023-01-15T01:39:16.742Z,14.33
2023-01-15T01:41:48.282Z,15.30
2023-01-15T01:45:03.039Z,14.77
2023-01-15T01:47:35.431Z,15.07
2023-01-15T01:50:11.688Z,14.43
2023-01-15T01:52:46.403Z,12.93
2023-01-15T01:55:18.675Z,12.67
2023-01-15T01:57:53.000Z,12.50
2023-01-15T02:00:26.307Z,14.17
2023-01-15T02:02:57.042Z,13.97
2023-01-15T02:05:32.463Z,14.03
2023-01-15T02:08:03.297Z,19.87
2023-01-15T02:10:33.726Z,17.27
2023-01-15T02:13:10.497Z,16.83
2023-01-15T02:15:47.792Z,14.60
2023-01-15T02:18:24.806Z,13.57
2023-01-15T02:21:00.840Z,14.47
2023-01-15T02:23:55.325Z,13.67
2023-01-15T02:27:01.898Z,12.73
2023-01-15T02:29:44.707Z,12.50
2023-01-15T02:32:21.389Z,12.17
2023-01-15T02:34:55.918Z,12.60
2023-01-15T02:37:29.611Z,12.30
2023-01-15T02:40:04.129Z,13.27
2023-01-15T02:42:38.860Z,12.90
2023-01-15T02:45:15.427Z,13.13
2023-01-15T02:47:48.517Z,12.40
2023-01-15T02:50:27.147Z,12.33
2023-01-15T02:53:04.629Z,12.20
2023-01-15T02:55:43.137Z,12.67
2023-01-15T02:58:19.577Z,12.47
2023-01-15T03:00:57.778Z,12.90
2023-01-15T03:03:38.376Z,12.87
2023-01-15T03:06:15.267Z,12.80
2023-01-15T03:08:46.013Z,11.70
2023-01-15T03:11:19.519Z,11.83
2023-01-15T03:14:01.275Z,12.00
2023-01-15T03:16:35.758Z,11.77
2023-01-15T03:19:19.553Z,12.10
2023-01-15T03:21:57.446Z,11.10
2023-01-15T03:24:34.936Z,11.27
2023-01-15T03:27:06.901Z,12.60
2023-01-15T03:29:42.142Z,12.33
2023-01-15T03:32:14.515Z,12.40
2023-01-15T03:34:48.737Z,13.03
2023-01-15T03:37:23.657Z,12.40
2023-01-15T03:39:55.614Z,15.47
2023-01-15T03:42:37.904Z,16.57
2023-01-15T03:45:15.218Z,16.17
2023-01-15T03:47:59.965Z,15.90
2023-01-15T03:50:39.299Z,15.27
2023-01-15T03:53:17.921Z,14.53
2023-01-15T03:56:08.417Z,15.27
2023-01-15T03:58:46.752Z,15.33
2023-01-15T04:01:23.899Z,14.20
2023-01-15T04:03:58.149Z,15.43
2023-01-15T04:06:32.963Z,14.13
2023-01-15T04:09:07.899Z,14.23
2023-01-15T04:11:38.422Z,19.23
2023-01-15T04:14:10.397Z,18.13
2023-01-15T04:16:50.740Z,17.07
2023-01-15T04:19:23.017Z,16.23
2023-01-15T04:22:02.060Z,16.60
2023-01-15T04:24:32.461Z,15.73
2023-01-15T04:27:02.596Z,15.33
2023-01-15T04:29:32.906Z,14.33
2023-01-15T04:32:03.249Z,12.27
2023-01-15T04:34:36.428Z,12.13
2023-01-15T04:37:06.745Z,12.13
2023-01-15T04:39:36.965Z,11.27
2023-01-15T04:42:24.185Z,12.50
2023-01-15T04:44:54.208Z,11.73
2023-01-15T04:47:24.401Z,11.63
2023-01-15T04:49:56.397Z,11.50
2023-01-15T04:52:26.817Z,11.87
2023-01-15T04:54:58.376Z,11.23
2023-01-15T04:57:28.706Z,10.90
2023-01-15T04:59:59.216Z,11.40
2023-01-15T05:02:29.750Z,10.87
2023-01-15T05:05:01.704Z,11.17
2023-01-15T05:07:32.030Z,11.73
2023-01-15T05:10:02.044Z,10.73
2023-01-15T05:12:32.278Z,11.30
2023-01-15T05:15:02.801Z,10.70
2023-01-15T05:17:35.339Z,11.50
2023-01-15T05:20:08.671Z,12.70
2023-01-15T05:22:39.111Z,11.63
2023-01-15T05:25:10.145Z,11.03
2023-01-15T05:27:40.462Z,13.27
2023-01-15T05:30:12.356Z,13.23
2023-01-15T05:32:44.696Z,13.57
2023-01-15T05:35:16.962Z,12.63
2023-01-15T05:37:50.251Z,13.50
2023-01-15T05:40:20.812Z,13.20
2023-01-15T05:42:51.104Z,14.07
2023-01-15T05:45:21.020Z,12.33
2023-01-15T05:47:51.759Z,12.97
2023-01-15T05:50:24.127Z,14.03
2023-01-15T05:52:54.246Z,13.13
2023-01-15T05:55:24.465Z,12.80
2023-01-15T05:57:54.998Z,13.50
2023-01-15T06:00:27.229Z,16.37
2023-01-15T06:02:58.252Z,14.07
2023-01-15T06:05:30.070Z,16.40
2023-01-15T06:08:01.300Z,13.67
2023-01-15T06:10:31.731Z,12.97
2023-01-15T06:13:01.962Z,14.37
2023-01-15T06:15:32.281Z,13.73
2023-01-15T06:18:02.400Z,15.43
2023-01-15T06:20:34.669Z,15.97
2023-01-15T06:23:04.786Z,15.07
2023-01-15T06:25:37.363Z,15.57
2023-01-15T06:28:08.402Z,16.17
2023-01-15T06:30:40.982Z,21.30
2023-01-15T06:33:11.263Z,23.00
2023-01-15T06:35:42.956Z,21.23
2023-01-15T06:38:13.175Z,19.80
2023-01-15T06:40:43.606Z,15.63
2023-01-15T06:43:31.419Z,14.20
2023-01-15T06:46:22.016Z,13.90
2023-01-15T06:48:52.611Z,19.77
2023-01-15T06:51:24.632Z,22.60
2023-01-15T06:53:54.747Z,21.83
2023-01-15T06:56:24.977Z,18.83
2023-01-15T06:58:56.725Z,18.73
2023-01-15T07:01:31.303Z,18.63
2023-01-15T07:04:01.630Z,17.77
2023-01-15T07:06:34.250Z,17.13
2023-01-15T07:09:04.616Z,17.03
2023-01-15T07:11:35.004Z,17.33
2023-01-15T07:14:07.900Z,22.03
2023-01-15T07:16:41.907Z,19.20
2023-01-15T07:19:13.461Z,20.77
2023-01-15T07:21:46.451Z,18.77
2023-01-15T07:24:16.868Z,25.23
2023-01-15T07:26:48.926Z,18.13
2023-01-15T07:29:19.646Z,16.53
2023-01-15T07:31:51.420Z,15.90
2023-01-15T07:34:23.080Z,15.30
2023-01-15T07:36:55.862Z,15.63
2023-01-15T07:39:26.892Z,17.30
2023-01-15T07:42:14.224Z,17.17
2023-01-15T07:45:05.225Z,15.40
2023-01-15T07:47:52.456Z,15.37
2023-01-15T07:50:26.467Z,15.63
2023-01-15T07:52:58.694Z,15.50
2023-01-15T07:55:29.778Z,15.03
2023-01-15T07:58:00.824Z,15.20
2023-01-15T08:00:32.192Z,15.13
2023-01-15T08:03:04.635Z,14.53
2023-01-15T08:05:42.126Z,14.53
2023-01-15T08:08:19.807Z,15.00
2023-01-15T08:11:03.556Z,14.73
2023-01-15T08:13:55.799Z,14.73
2023-01-15T08:16:31.693Z,14.53
2023-01-15T08:19:01.766Z,18.17
2023-01-15T08:21:34.956Z,17.07
2023-01-15T08:24:07.973Z,15.70
2023-01-15T08:26:38.582Z,17.63
2023-01-15T08:29:09.945Z,17.17
2023-01-15T08:31:42.126Z,17.53
2023-01-15T08:34:14.568Z,27.53
2023-01-15T08:36:45.715Z,24.53
2023-01-15T08:39:19.828Z,23.23
2023-01-15T08:41:50.967Z,24.03
2023-01-15T08:44:22.823Z,19.57
2023-01-15T08:46:54.486Z,16.77
2023-01-15T08:49:25.716Z,20.63
2023-01-15T08:51:56.365Z,21.77
2023-01-15T08:54:30.265Z,15.77
2023-01-15T08:57:07.811Z,16.07
2023-01-15T08:59:38.489Z,22.40
2023-01-15T09:02:10.298Z,24.37
2023-01-15T09:04:42.479Z,22.73
2023-01-15T09:07:13.718Z,21.00
2023-01-15T09:10:06.546Z,21.27
2023-01-15T09:12:37.135Z,28.10
2023-01-15T09:15:09.006Z,20.27
2023-01-15T09:17:43.730Z,20.27
2023-01-15T09:20:18.359Z,21.20
2023-01-15T09:22:50.628Z,18.43
2023-01-15T09:25:25.051Z,18.90
2023-01-15T09:27:58.441Z,19.93
2023-01-15T09:30:29.049Z,19.40
2023-01-15T09:32:59.694Z,16.67
2023-01-15T09:35:30.029Z,17.70
2023-01-15T09:38:00.655Z,20.17
2023-01-15T09:40:48.209Z,21.37
2023-01-15T09:43:29.454Z,18.97
2023-01-15T09:46:08.126Z,17.77
2023-01-15T09:48:48.523Z,29.07
2023-01-15T09:51:29.136Z,33.80
2023-01-15T09:54:18.128Z,33.00
2023-01-15T09:56:50.435Z,26.20
2023-01-15T09:59:30.488Z,29.00
2023-01-15T10:02:02.577Z,36.37
2023-01-15T10:04:39.527Z,41.23
2023-01-15T10:07:18.966Z,28.83
2023-01-15T10:09:57.597Z,24.83
2023-01-15T10:12:40.230Z,23.47
2023-01-15T10:15:22.096Z,22.97
2023-01-15T10:17:55.399Z,21.83
2023-01-15T10:20:51.572Z,21.13
2023-01-15T10:23:37.004Z,24.23
2023-01-15T10:26:18.862Z,24.60
2023-01-15T10:29:01.914Z,30.20
2023-01-15T10:31:47.695Z,28.93
2023-01-15T10:34:47.003Z,26.13
2023-01-15T10:37:21.376Z,26.33
2023-01-15T10:40:03.525Z,23.90
2023-01-15T10:42:45.422Z,23.57
2023-01-15T10:45:21.775Z,23.53
2023-01-15T10:47:57.956Z,22.37
2023-01-15T10:50:30.426Z,19.90
2023-01-15T10:53:12.518Z,18.83
2023-01-15T10:55:46.227Z,19.77
2023-01-15T10:58:25.897Z,30.20
2023-01-15T11:01:02.445Z,31.80
2023-01-15T11:03:38.303Z,27.83
2023-01-15T11:06:16.198Z,28.17
2023-01-15T11:12:02.630Z,24.83
2023-01-15T11:14:54.655Z,23.50
2023-01-15T11:17:46.691Z,23.87
2023-01-15T11:20:28.791Z,34.50
2023-01-15T11:23:01.444Z,46.27
2023-01-15T11:25:33.520Z,43.47
2023-01-15T11:28:07.742Z,42.10
2023-01-15T11:30:40.066Z,36.03
2023-01-15T11:33:32.668Z,25.97
2023-01-15T11:36:05.026Z,23.20
2023-01-15T11:38:46.311Z,23.37
2023-01-15T11:41:25.126Z,22.50
2023-01-15T11:44:16.452Z,23.77
2023-01-15T11:47:06.117Z,23.33
2023-01-15T11:49:55.589Z,23.00
2023-01-15T11:52:27.544Z,27.20
2023-01-15T11:54:58.400Z,25.90
2023-01-15T11:57:30.459Z,21.70
2023-01-15T12:00:01.488Z,22.57
2023-01-15T12:02:39.602Z,41.10
2023-01-15T12:05:19.968Z,39.73
2023-01-15T12:07:53.357Z,27.30
2023-01-15T12:10:55.218Z,24.80
2023-01-15T12:13:32.538Z,26.60
2023-01-15T12:16:10.153Z,25.83
2023-01-15T12:18:53.017Z,28.03
2023-01-15T12:21:49.455Z,37.33
2023-01-15T12:24:39.839Z,26.77
2023-01-15T12:27:25.638Z,25.97
2023-01-15T12:30:01.344Z,25.60
2023-01-15T12:32:37.135Z,23.60
2023-01-15T12:35:17.808Z,23.60
2023-01-15T12:37:57.545Z,26.33
2023-01-15T12:40:33.086Z,26.07
2023-01-15T12:43:20.000Z,28.47
2023-01-15T12:45:54.625Z,25.40
2023-01-15T12:48:31.865Z,24.97
2023-01-15T12:51:05.217Z,25.23
2023-01-15T12:53:43.418Z,24.77
2023-01-15T12:56:20.396Z,22.87
2023-01-15T12:58:55.029Z,24.67
2023-01-15T13:01:33.951Z,23.50
2023-01-15T13:04:14.669Z,22.53
2023-01-15T13:06:48.536Z,24.17
2023-01-15T13:09:33.176Z,24.83
2023-01-15T13:12:04.733Z,24.53
2023-01-15T13:14:34.951Z,23.10
2023-01-15T13:17:13.068Z,23.53
2023-01-15T13:19:53.229Z,22.63
2023-01-15T13:22:28.146Z,22.90
2023-01-15T13:25:35.861Z,23.43
2023-01-15T13:28:22.274Z,21.93
2023-01-15T13:31:04.862Z,21.67
2023-01-15T13:33:40.108Z,22.60
2023-01-15T13:36:16.980Z,30.20
2023-01-15T13:38:52.053Z,29.67
2023-01-15T13:41:41.488Z,29.53
2023-01-15T13:44:21.137Z,26.37
2023-01-15T13:47:05.398Z,22.33
2023-01-15T13:49:37.638Z,21.43
2023-01-15T13:52:10.432Z,22.83
2023-01-15T13:54:45.460Z,22.93
2023-01-15T13:57:28.789Z,23.03
2023-01-15T13:59:59.324Z,23.40
2023-01-15T14:02:31.600Z,22.73
2023-01-15T14:05:04.266Z,23.60
2023-01-15T14:07:37.357Z,23.53
2023-01-15T14:10:23.651Z,22.70
2023-01-15T14:13:08.065Z,23.13
2023-01-15T14:15:51.042Z,21.13
2023-01-15T14:18:40.200Z,22.93
2023-01-15T14:21:23.540Z,23.13
2023-01-15T14:24:11.159Z,22.43
2023-01-15T14:26:51.765Z,23.27
2023-01-15T14:29:53.788Z,22.60
2023-01-15T14:32:33.942Z,24.10
2023-01-15T14:35:06.681Z,24.63
2023-01-15T14:37:47.190Z,24.70
2023-01-15T14:40:27.152Z,24.63
2023-01-15T14:43:05.650Z,24.83
2023-01-15T14:45:41.227Z,23.97
2023-01-15T14:48:24.223Z,24.17
2023-01-15T14:50:54.639Z,24.97
2023-01-15T14:53:37.037Z,29.03
2023-01-15T14:56:16.188Z,29.83
2023-01-15T14:58:54.088Z,33.00
2023-01-15T15:01:47.012Z,32.07
2023-01-15T15:04:35.389Z,30.57
2023-01-15T15:07:08.262Z,33.53
2023-01-15T15:09:43.864Z,30.67
2023-01-15T15:12:26.842Z,26.27
2023-01-15T15:15:04.524Z,27.60
2023-01-15T15:17:44.995Z,31.23
2023-01-15T15:20:41.430Z,32.90
2023-01-15T15:23:17.315Z,38.50
2023-01-15T15:25:57.235Z,34.50
2023-01-15T15:28:27.868Z,33.47
2023-01-15T15:31:02.219Z,34.37
2023-01-15T15:33:42.750Z,28.70
2023-01-15T15:36:13.889Z,28.67
2023-01-15T15:38:55.162Z,43.07
2023-01-15T15:41:46.997Z,29.87
2023-01-15T15:44:39.548Z,29.10
2023-01-15T15:47:39.359Z,28.53
2023-01-15T15:50:22.785Z,29.13
2023-01-15T15:52:53.630Z,32.13
2023-01-15T15:55:27.831Z,35.53
2023-01-15T15:58:02.793Z,46.43
2023-01-15T16:00:36.180Z,37.20
2023-01-15T16:03:10.042Z,37.47
2023-01-15T16:05:47.567Z,40.37
2023-01-15T16:08:22.431Z,47.53
2023-01-15T16:10:55.797Z,44.90
2023-01-15T16:13:29.699Z,44.57
2023-01-15T16:16:02.555Z,40.60
2023-01-15T16:18:41.413Z,35.23
2023-01-15T16:21:17.771Z,44.30
2023-01-15T16:24:00.890Z,46.20
2023-01-15T16:26:38.092Z,49.87
2023-01-15T16:29:18.749Z,53.37
2023-01-15T16:31:50.198Z,45.37
2023-01-15T16:34:22.870Z,38.63
2023-01-15T16:36:55.759Z,41.90
2023-01-15T16:39:28.941Z,40.73
2023-01-15T16:42:02.757Z,36.90
2023-01-15T16:44:44.847Z,36.37
2023-01-15T16:47:26.539Z,31.67
2023-01-15T16:50:36.188Z,35.13
2023-01-15T16:53:09.270Z,33.63
2023-01-15T16:55:45.243Z,31.83
2023-01-15T16:58:20.989Z,29.60
2023-01-15T17:00:56.642Z,30.70
2023-01-15T17:03:29.616Z,36.07
2023-01-15T17:06:04.256Z,33.73
2023-01-15T17:08:41.740Z,34.00
2023-01-15T17:11:23.023Z,33.50
2023-01-15T17:13:53.748Z,33.87
2023-01-15T17:16:25.297Z,36.20
2023-01-15T17:18:56.647Z,36.60
2023-01-15T17:21:29.836Z,36.80
2023-01-15T17:24:04.562Z,35.17
2023-01-15T17:26:35.310Z,35.03
2023-01-15T17:29:05.826Z,29.13
2023-01-15T17:31:37.172Z,32.53
2023-01-15T17:34:08.074Z,31.53
2023-01-15T17:36:38.348Z,29.93
2023-01-15T17:39:13.699Z,33.50
2023-01-15T17:41:44.408Z,35.97
2023-01-15T17:44:17.510Z,33.93
2023-01-15T17:46:48.092Z,30.83
2023-01-15T17:49:18.757Z,31.67
2023-01-15T17:51:50.722Z,31.43
2023-01-15T17:54:42.857Z,31.80
2023-01-15T17:57:29.767Z,32.53
2023-01-15T18:00:17.100Z,30.43
2023-01-15T18:03:05.831Z,29.30
2023-01-15T18:05:36.885Z,31.47
2023-01-15T18:08:13.158Z,38.53
2023-01-15T18:10:44.854Z,35.17
2023-01-15T18:13:15.317Z,35.70
2023-01-15T18:15:45.458Z,34.63
2023-01-15T18:18:16.596Z,34.43
2023-01-15T18:20:47.225Z,33.23
2023-01-15T18:23:17.768Z,32.97
2023-01-15T18:25:49.781Z,36.37
2023-01-15T18:28:20.270Z,38.27
2023-01-15T18:30:50.687Z,37.73
2023-01-15T18:33:20.906Z,49.40
2023-01-15T18:35:51.329Z,57.17
2023-01-15T18:38:21.451Z,57.00
2023-01-15T18:40:55.348Z,44.90
2023-01-15T18:43:42.567Z,37.43
2023-01-15T18:46:31.674Z,33.27
2023-01-15T18:49:01.864Z,32.60
2023-01-15T18:51:31.980Z,29.80
2023-01-15T18:54:02.096Z,30.07
2023-01-15T18:56:49.620Z,32.00
2023-01-15T18:59:19.948Z,32.53
2023-01-15T19:01:52.582Z,30.33
2023-01-15T19:04:22.649Z,31.13
2023-01-15T19:06:53.477Z,32.10
2023-01-15T19:09:29.327Z,33.00
2023-01-15T19:12:01.453Z,33.13
2023-01-15T19:14:48.505Z,33.97
2023-01-15T19:17:37.788Z,32.83
2023-01-15T19:20:09.950Z,32.83
2023-01-15T19:22:56.900Z,32.67
2023-01-15T19:25:27.417Z,30.37
2023-01-15T19:28:02.423Z,31.87
2023-01-15T19:30:34.261Z,29.90
2023-01-15T19:33:04.707Z,31.33
2023-01-15T19:35:36.168Z,30.30
2023-01-15T19:38:08.842Z,31.37
2023-01-15T19:40:41.115Z,29.87
2023-01-15T19:43:27.917Z,31.93
2023-01-15T19:46:15.417Z,31.93
2023-01-15T19:49:04.723Z,31.80
2023-01-15T19:51:48.572Z,29.93
2023-01-15T19:54:39.351Z,29.27
2023-01-15T19:57:09.788Z,29.17
2023-01-15T19:59:41.860Z,32.47
2023-01-15T20:02:15.092Z,30.43
2023-01-15T20:04:47.850Z,31.40
2023-01-15T20:07:18.858Z,28.67
2023-01-15T20:09:48.978Z,29.60
2023-01-15T20:12:36.091Z,29.30
2023-01-15T20:15:10.108Z,27.50
2023-01-15T20:17:40.274Z,25.97
2023-01-15T20:20:13.523Z,25.17
2023-01-15T20:22:44.862Z,26.77
2023-01-15T20:25:16.020Z,26.67
2023-01-15T20:27:46.751Z,23.73
2023-01-15T20:30:22.499Z,25.37
2023-01-15T20:32:54.780Z,25.27
2023-01-15T20:35:29.797Z,24.43
2023-01-15T20:38:00.850Z,27.00
2023-01-15T20:40:31.262Z,27.13
2023-01-15T20:43:18.387Z,29.60
2023-01-15T20:45:50.379Z,26.03
2023-01-15T20:48:37.656Z,25.33
2023-01-15T20:51:15.211Z,23.40
2023-01-15T20:53:45.290Z,23.60
2023-01-15T20:56:18.779Z,23.03
2023-01-15T20:58:49.402Z,24.97
2023-01-15T21:01:22.453Z,23.63
2023-01-15T21:03:53.055Z,22.70
2023-01-15T21:06:25.398Z,25.27
2023-01-15T21:08:56.039Z,23.57
2023-01-15T21:11:26.862Z,23.07
2023-01-15T21:13:57.287Z,22.93
2023-01-15T21:16:29.521Z,22.93
2023-01-15T21:19:01.718Z,23.17
2023-01-15T21:21:33.083Z,23.97
2023-01-15T21:24:04.029Z,23.33
2023-01-15T21:26:37.095Z,23.40
2023-01-15T21:29:07.643Z,24.10
2023-01-15T21:31:40.834Z,24.83
2023-01-15T21:34:11.558Z,25.67
2023-01-15T21:36:41.786Z,25.40
2023-01-15T21:39:13.638Z,25.30
2023-01-15T21:42:00.971Z,25.73
2023-01-15T21:44:35.702Z,25.00
2023-01-15T21:47:09.447Z,25.97
2023-01-15T21:49:40.136Z,25.00
2023-01-15T21:52:12.189Z,24.87
2023-01-15T21:54:43.325Z,23.57
2023-01-15T21:57:14.434Z,24.83
2023-01-15T21:59:45.506Z,22.03
2023-01-15T22:02:19.494Z,23.43
2023-01-15T22:04:50.453Z,20.53
2023-01-15T22:07:21.611Z,20.47
2023-01-15T22:09:51.823Z,19.60
2023-01-15T22:12:22.164Z,19.37
2023-01-15T22:14:54.227Z,19.73
2023-01-15T22:17:26.390Z,19.07
2023-01-15T22:19:56.907Z,19.90
2023-01-15T22:22:31.772Z,18.50
2023-01-15T22:25:02.076Z,19.90
2023-01-15T22:27:35.047Z,19.43
2023-01-15T22:30:05.688Z,18.07
2023-01-15T22:32:37.637Z,18.77
2023-01-15T22:35:11.137Z,18.07
2023-01-15T22:37:41.498Z,18.93
2023-01-15T22:40:13.430Z,18.93
2023-01-15T22:42:44.465Z,19.30
2023-01-15T22:45:14.958Z,19.70
2023-01-15T22:47:46.970Z,19.80
2023-01-15T22:50:17.585Z,19.63
2023-01-15T22:52:47.906Z,20.57
2023-01-15T22:55:18.947Z,19.73
2023-01-15T22:57:49.789Z,20.37
2023-01-15T23:00:21.040Z,23.37
2023-01-15T23:03:08.062Z,23.53
2023-01-15T23:05:39.498Z,24.07
2023-01-15T23:08:10.744Z,25.30
2023-01-15T23:10:46.499Z,25.97
2023-01-15T23:13:17.340Z,27.63
2023-01-15T23:15:47.836Z,27.47
2023-01-15T23:18:19.730Z,30.70
2023-01-15T23:20:50.064Z,31.97
2023-01-15T23:23:21.641Z,33.30
2023-01-15T23:25:52.338Z,33.33
2023-01-15T23:28:22.564Z,32.40
2023-01-15T23:30:53.432Z,31.23
2023-01-15T23:33:26.380Z,30.07
2023-01-15T23:35:56.800Z,29.47
2023-01-15T23:38:27.426Z,29.57
2023-01-15T23:40:58.058Z,28.77
2023-01-15T23:43:45.601Z,29.27
2023-01-15T23:46:36.819Z,26.40
2023-01-15T23:49:10.511Z,25.03
2023-01-15T23:51:40.632Z,24.17
2023-01-15T23:54:10.851Z,21.93
2023-01-15T23:56:41.387Z,21.73
2023-01-15T23:59:11.797Z,21.77
